Hampstead, North Carolina
Current Conditions -  °F | °C
As of 6:53 PM on Friday 28 Nov 2014 (Local Time) from KILM Reporting Station
Clear Clear  
Wind Chill: 36°   Ceiling: Unl
Heat Index: 36°   Visibility: 10mi
Dew Point: 30°   Wind: 0mph
Humidity: 79%   Direction: NA
Pressure: 30.33"   Gusts: NA
Location:  34.37°N, 77.71°W
Report Text: KILM 282353Z 00000KT 10SM CLR 02/M01 A3033 RMK AO2 SLP269 T00221011 10089 20022 53007
Loading
Personal Weather Stations






























Interactive Weather Map New forecast layout! Learn more

10-Day Weather Forecast

Advertisements
Track Severe Weather on mobile